createdAt,value
2022-12-26T00:01:28.193Z,48.61
2022-12-26T00:06:31.798Z,48.68
2022-12-26T00:11:34.694Z,48.76
2022-12-26T00:16:41.739Z,48.81
2022-12-26T00:21:43.799Z,48.83
2022-12-26T00:26:45.723Z,49.09
2022-12-26T00:31:50.166Z,49.05
2022-12-26T00:36:52.288Z,49.13
2022-12-26T00:41:54.110Z,49.34
2022-12-26T00:46:56.168Z,49.43
2022-12-26T00:51:58.001Z,49.59
2022-12-26T00:56:59.892Z,49.64
2022-12-26T01:06:12.965Z,52.30
2022-12-26T01:11:36.842Z,48.85
2022-12-26T01:16:40.633Z,49.05
2022-12-26T01:21:43.277Z,48.80
2022-12-26T01:26:46.210Z,48.87
2022-12-26T01:31:48.276Z,48.86
2022-12-26T01:36:52.506Z,48.91
2022-12-26T01:41:54.562Z,49.11
2022-12-26T01:46:56.601Z,48.89
2022-12-26T01:52:03.515Z,48.88
2022-12-26T01:57:15.075Z,49.08
2022-12-26T02:02:22.700Z,49.06
2022-12-26T02:07:26.675Z,48.92
2022-12-26T02:12:34.684Z,49.00
2022-12-26T02:17:41.152Z,48.76
2022-12-26T02:23:13.816Z,48.59
2022-12-26T02:28:18.711Z,48.75
2022-12-26T02:33:49.881Z,48.92
2022-12-26T02:39:44.094Z,48.89
2022-12-26T02:45:15.056Z,48.98
2022-12-26T02:50:49.302Z,49.00
2022-12-26T02:56:16.667Z,49.00
2022-12-26T03:01:48.754Z,49.00
2022-12-26T03:07:15.956Z,49.03
2022-12-26T03:12:36.538Z,49.00
2022-12-26T03:17:43.259Z,49.10
2022-12-26T03:22:59.541Z,49.28
2022-12-26T03:28:01.916Z,49.73
2022-12-26T03:33:04.029Z,49.62
2022-12-26T03:38:14.197Z,49.55
2022-12-26T03:44:07.706Z,49.60
2022-12-26T03:49:39.147Z,49.62
2022-12-26T03:55:20.580Z,49.60
2022-12-26T04:00:42.219Z,49.70
2022-12-26T04:06:04.153Z,49.66
2022-12-26T04:11:29.485Z,49.80
2022-12-26T04:16:53.285Z,49.89
2022-12-26T04:22:19.396Z,50.03
2022-12-26T04:27:42.866Z,50.38
2022-12-26T04:33:08.839Z,50.52
2022-12-26T04:38:35.617Z,50.55
2022-12-26T04:43:57.807Z,50.57
2022-12-26T04:49:21.842Z,50.75
2022-12-26T04:54:24.251Z,50.69
2022-12-26T04:59:27.113Z,50.63
2022-12-26T05:04:47.704Z,50.55
2022-12-26T05:09:53.473Z,50.44
2022-12-26T05:14:55.386Z,50.13
2022-12-26T05:20:16.020Z,50.07
2022-12-26T05:25:46.077Z,50.09
2022-12-26T05:30:48.368Z,50.10
2022-12-26T05:35:50.331Z,49.99
2022-12-26T05:40:52.285Z,49.91
2022-12-26T05:45:54.223Z,49.97
2022-12-26T05:51:04.368Z,49.87
2022-12-26T05:56:10.110Z,49.79
2022-12-26T06:01:16.506Z,49.64
2022-12-26T06:06:19.403Z,49.45
2022-12-26T06:11:21.690Z,49.55
2022-12-26T06:16:23.847Z,49.48
2022-12-26T06:21:26.337Z,49.49
2022-12-26T06:26:28.388Z,49.37
2022-12-26T06:31:31.439Z,49.35
2022-12-26T06:36:33.547Z,49.17
2022-12-26T06:41:35.562Z,49.03
2022-12-26T06:46:37.676Z,49.01
2022-12-26T06:51:39.772Z,48.91
2022-12-26T06:56:41.779Z,48.89
2022-12-26T07:01:43.901Z,48.84
2022-12-26T07:06:46.081Z,48.53
2022-12-26T07:11:50.257Z,48.57
2022-12-26T07:16:52.151Z,48.34
2022-12-26T07:21:54.199Z,48.31
2022-12-26T07:26:56.176Z,48.11
2022-12-26T07:31:59.041Z,48.04
2022-12-26T07:37:01.215Z,48.18
2022-12-26T07:42:04.379Z,48.24
2022-12-26T07:47:06.663Z,48.23
2022-12-26T07:52:08.544Z,48.36
2022-12-26T07:57:46.208Z,48.20
2022-12-26T08:02:32.801Z,47.91
2022-12-26T08:07:34.877Z,48.00
2022-12-26T08:12:37.398Z,47.91
2022-12-26T08:17:39.189Z,47.88
2022-12-26T08:22:41.070Z,47.76
2022-12-26T08:27:43.294Z,47.62
2022-12-26T08:32:46.368Z,47.60
2022-12-26T08:37:48.525Z,47.55
2022-12-26T08:43:12.045Z,47.51
2022-12-26T08:48:12.534Z,47.47
2022-12-26T08:53:14.441Z,47.49
2022-12-26T08:58:16.374Z,47.64
2022-12-26T09:03:18.547Z,47.87
2022-12-26T09:08:20.564Z,47.98
2022-12-26T09:13:25.019Z,48.11
2022-12-26T09:18:26.880Z,48.18
2022-12-26T09:23:29.388Z,48.33
2022-12-26T09:28:31.283Z,48.52
2022-12-26T09:33:36.196Z,48.44
2022-12-26T09:38:38.396Z,48.52
2022-12-26T09:44:07.147Z,48.56
2022-12-26T09:49:16.601Z,48.70
2022-12-26T09:54:33.006Z,48.78
2022-12-26T09:59:46.066Z,48.82
2022-12-26T10:04:48.633Z,48.73
2022-12-26T10:09:55.255Z,48.70
2022-12-26T10:15:06.468Z,48.62
2022-12-26T10:20:18.545Z,48.64
2022-12-26T10:25:28.827Z,48.64
2022-12-26T10:30:39.436Z,48.65
2022-12-26T10:35:44.155Z,48.69
2022-12-26T10:40:50.376Z,48.75
2022-12-26T10:46:16.380Z,48.68
2022-12-26T10:51:18.398Z,48.57
2022-12-26T10:56:22.395Z,48.58
2022-12-26T11:01:33.624Z,48.57
2022-12-26T11:06:41.909Z,48.35
2022-12-26T11:11:51.571Z,48.34
2022-12-26T11:16:54.346Z,48.02
2022-12-26T11:22:27.620Z,47.96
2022-12-26T11:27:29.533Z,47.77
2022-12-26T11:32:31.485Z,47.60
2022-12-26T11:37:44.485Z,47.58
2022-12-26T11:42:56.693Z,47.44
2022-12-26T11:48:01.128Z,47.37
2022-12-26T11:53:03.051Z,47.38
2022-12-26T11:58:25.396Z,47.22
2022-12-26T12:03:48.933Z,46.76
2022-12-26T12:09:02.273Z,46.95
2022-12-26T12:14:26.084Z,47.02
2022-12-26T12:19:55.104Z,46.69
2022-12-26T12:25:36.951Z,46.30
2022-12-26T12:30:47.289Z,46.30
2022-12-26T12:36:09.928Z,46.36
2022-12-26T12:41:36.402Z,46.15
2022-12-26T12:47:09.822Z,45.84
2022-12-26T12:52:14.553Z,45.90
2022-12-26T12:57:37.811Z,45.60
2022-12-26T13:02:52.267Z,45.33
2022-12-26T13:08:04.070Z,45.49
2022-12-26T13:13:22.153Z,45.63
2022-12-26T13:18:31.434Z,45.52
2022-12-26T13:23:59.356Z,45.55
2022-12-26T13:29:16.227Z,45.58
2022-12-26T13:34:20.616Z,45.22
2022-12-26T13:39:25.580Z,45.17
2022-12-26T13:44:27.621Z,45.15
2022-12-26T13:49:38.989Z,45.18
2022-12-26T13:54:47.100Z,44.99
2022-12-26T14:00:06.274Z,45.00
2022-12-26T14:05:37.146Z,45.03
2022-12-26T14:11:21.169Z,44.81
2022-12-26T14:16:39.254Z,44.85
2022-12-26T14:22:36.740Z,45.02
2022-12-26T14:27:57.372Z,44.80
2022-12-26T14:33:26.588Z,44.77
2022-12-26T14:38:58.660Z,44.91
2022-12-26T14:44:37.812Z,44.81
2022-12-26T14:49:42.911Z,44.79
2022-12-26T14:54:51.241Z,44.86
2022-12-26T15:00:15.728Z,44.96
2022-12-26T15:05:25.219Z,44.95
2022-12-26T15:10:42.333Z,44.95
2022-12-26T15:16:16.213Z,44.82
2022-12-26T15:21:34.188Z,44.84
2022-12-26T15:27:00.989Z,44.81
2022-12-26T15:32:41.018Z,44.79
2022-12-26T15:38:16.379Z,44.75
2022-12-26T15:43:26.267Z,44.76
2022-12-26T15:49:14.189Z,44.72
2022-12-26T15:54:50.223Z,44.96
2022-12-26T16:00:05.448Z,45.01
2022-12-26T16:05:18.072Z,44.98
2022-12-26T16:10:22.844Z,45.10
2022-12-26T16:15:26.191Z,45.25
2022-12-26T16:20:51.338Z,45.98
2022-12-26T16:25:56.107Z,46.77
2022-12-26T16:30:58.637Z,47.22
2022-12-26T16:36:01.696Z,47.74
2022-12-26T16:41:20.215Z,48.08
2022-12-26T16:46:26.460Z,48.34
2022-12-26T16:51:43.871Z,48.45
2022-12-26T16:57:12.921Z,48.60
2022-12-26T17:02:20.927Z,48.71
2022-12-26T17:07:23.153Z,48.99
2022-12-26T17:12:32.260Z,49.06
2022-12-26T17:17:38.818Z,49.32
2022-12-26T17:22:40.777Z,49.42
2022-12-26T17:27:45.220Z,49.40
2022-12-26T17:32:48.191Z,49.46
2022-12-26T17:37:55.696Z,49.57
2022-12-26T17:43:07.293Z,49.55
2022-12-26T17:48:10.416Z,49.57
2022-12-26T17:53:24.722Z,49.60
2022-12-26T17:58:26.568Z,49.57
2022-12-26T18:03:28.769Z,49.54
2022-12-26T18:08:41.571Z,49.57
2022-12-26T18:13:45.357Z,49.59
2022-12-26T18:18:48.769Z,49.55
2022-12-26T18:23:51.220Z,49.51
2022-12-26T18:28:54.073Z,49.58
2022-12-26T18:33:56.598Z,49.50
2022-12-26T18:38:58.625Z,49.49
2022-12-26T18:44:00.473Z,49.53
2022-12-26T18:49:02.557Z,49.38
2022-12-26T18:54:06.340Z,49.51
2022-12-26T18:59:12.034Z,49.57
2022-12-26T19:04:18.573Z,49.44
2022-12-26T19:09:20.922Z,49.40
2022-12-26T19:14:23.217Z,49.35
2022-12-26T19:19:29.594Z,49.43
2022-12-26T19:24:31.829Z,49.34
2022-12-26T19:29:34.640Z,49.43
2022-12-26T19:34:36.570Z,49.58
2022-12-26T19:39:38.707Z,49.70
2022-12-26T19:44:40.646Z,49.92
2022-12-26T19:49:43.249Z,50.09
2022-12-26T19:54:45.218Z,50.08
2022-12-26T19:59:47.174Z,50.29
2022-12-26T20:04:49.489Z,50.31
2022-12-26T20:09:51.480Z,50.16
2022-12-26T20:14:54.178Z,50.04
2022-12-26T20:19:56.245Z,50.20
2022-12-26T20:24:58.561Z,50.52
2022-12-26T20:30:00.783Z,50.52
2022-12-26T20:35:02.726Z,50.35
2022-12-26T20:40:05.720Z,50.71
2022-12-26T20:45:08.417Z,50.81
2022-12-26T20:50:10.619Z,50.94
2022-12-26T20:55:13.714Z,50.98
2022-12-26T21:00:16.236Z,50.88
2022-12-26T21:05:18.111Z,50.88
2022-12-26T21:10:21.522Z,50.83
2022-12-26T21:15:23.839Z,50.75
2022-12-26T21:20:27.634Z,50.75
2022-12-26T21:25:29.681Z,50.53
2022-12-26T21:30:35.152Z,50.49
2022-12-26T21:35:40.250Z,50.43
2022-12-26T21:40:43.794Z,50.41
2022-12-26T21:45:53.862Z,50.26
2022-12-26T21:51:02.476Z,49.96
2022-12-26T21:56:30.224Z,49.87
2022-12-26T22:01:45.468Z,49.74
2022-12-26T22:06:49.677Z,49.64
2022-12-26T22:12:14.767Z,49.53
2022-12-26T22:17:16.691Z,49.60
2022-12-26T22:22:18.687Z,49.41
2022-12-26T22:27:20.725Z,49.57
2022-12-26T22:32:24.827Z,49.37
2022-12-26T22:37:26.771Z,49.11
2022-12-26T22:42:30.178Z,49.23
2022-12-26T22:47:32.069Z,49.15
2022-12-26T22:52:33.963Z,49.08
2022-12-26T22:57:36.018Z,49.07
2022-12-26T23:02:38.226Z,48.93
2022-12-26T23:07:40.453Z,48.81
2022-12-26T23:12:45.604Z,48.76
2022-12-26T23:18:16.157Z,48.57
2022-12-26T23:23:18.361Z,48.72
2022-12-26T23:28:39.196Z,48.77
2022-12-26T23:33:41.165Z,48.85
2022-12-26T23:38:43.200Z,48.74
2022-12-26T23:43:45.083Z,48.79
2022-12-26T23:48:46.978Z,48.77
2022-12-26T23:53:48.876Z,48.69
2022-12-26T23:58:50.888Z,48.72
